Time;durP1;ratioP1;P1;durP2;ratioP2;P2;SDS_P1;SDS_P2;PMS_P1;PMS_P2;Temp;Humidity;BMP_temperature;BMP_pressure;BME280_temperature;BME280_humidity;BME280_pressure;Samples;Min_cycle;Max_cycle;Signal;HPM_P1;HPM_P2
2023/02/19 00:00:14;;;;;;;4.65;2.30;;;;;;;;;;5097550;28;20170;-74
2023/02/19 00:02:41;;;;;;;4.53;2.30;;;;;;;;;;5096800;28;20089;-74
2023/02/19 00:05:08;;;;;;;4.93;2.45;;;;;;;;;;5096706;28;20048;-76
2023/02/19 00:07:35;;;;;;;4.00;2.10;;;;;;;;;;5096752;28;20127;-74
2023/02/19 00:10:03;;;;;;;4.15;2.03;;;;;;;;;;5097417;28;20891;-76
2023/02/19 00:12:30;;;;;;;4.13;2.50;;;;;;;;;;5098554;28;20058;-74
2023/02/19 00:14:58;;;;;;;4.88;2.35;;;;;;;;;;5099083;28;20043;-75
2023/02/19 00:17:25;;;;;;;4.95;2.38;;;;;;;;;;5097008;28;20055;-74
2023/02/19 00:19:51;;;;;;;4.60;2.38;;;;;;;;;;5097592;28;20047;-74
2023/02/19 00:22:18;;;;;;;5.28;2.20;;;;;;;;;;5097545;28;20574;-74
2023/02/19 00:24:45;;;;;;;4.43;2.20;;;;;;;;;;5098586;28;20066;-74
2023/02/19 00:27:11;;;;;;;5.53;2.28;;;;;;;;;;5097513;28;20140;-74
2023/02/19 00:29:38;;;;;;;3.92;2.38;;;;;;;;;;5097171;28;20097;-76
2023/02/19 00:32:06;;;;;;;4.80;2.38;;;;;;;;;;5097485;28;20093;-74
2023/02/19 00:34:33;;;;;;;3.80;2.20;;;;;;;;;;5098045;28;20075;-74
2023/02/19 00:37:00;;;;;;;4.70;2.75;;;;;;;;;;5098037;28;20889;-74
2023/02/19 00:39:26;;;;;;;4.97;2.22;;;;;;;;;;5097223;28;20734;-74
2023/02/19 00:41:53;;;;;;;4.20;2.10;;;;;;;;;;5096761;28;20170;-76
2023/02/19 00:44:20;;;;;;;4.07;2.30;;;;;;;;;;5098029;28;20135;-75
2023/02/19 00:46:47;;;;;;;4.40;1.90;;;;;;;;;;5097930;28;20049;-75
2023/02/19 00:49:18;;;;;;;3.72;1.92;;;;;;;;;;5097462;28;20046;-75
2023/02/19 00:51:45;;;;;;;;;;;;;;;;;;5098166;28;20737;-76
2023/02/19 00:54:12;;;;;;;5.07;2.40;;;;;;;;;;5093015;28;20011;-77
2023/02/19 00:56:39;;;;;;;4.43;2.13;;;;;;;;;;5092305;28;20052;-76
2023/02/19 00:59:05;;;;;;;5.03;2.75;;;;;;;;;;5096326;28;20064;-75
2023/02/19 01:01:32;;;;;;;4.95;2.33;;;;;;;;;;5093724;28;20426;-76
2023/02/19 01:03:59;;;;;;;5.00;2.20;;;;;;;;;;5093554;28;20048;-76
2023/02/19 01:06:28;;;;;;;6.05;2.50;;;;;;;;;;5093995;28;20523;-76
2023/02/19 01:08:55;;;;;;;4.93;2.70;;;;;;;;;;5100731;28;20036;-75
2023/02/19 01:11:22;;;;;;;5.68;2.40;;;;;;;;;;5095985;28;20453;-74
2023/02/19 01:13:49;;;;;;;4.38;2.50;;;;;;;;;;5091436;28;20067;-75
2023/02/19 01:16:17;;;;;;;5.28;2.63;;;;;;;;;;5087176;28;20127;-76
2023/02/19 01:18:46;;;;;;;4.65;2.08;;;;;;;;;;5093391;28;20072;-75
2023/02/19 01:21:15;;;;;;;4.35;2.42;;;;;;;;;;5101130;28;20059;-75
2023/02/19 01:23:43;;;;;;;4.15;2.08;;;;;;;;;;5095707;28;20131;-76
2023/02/19 01:26:12;;;;;;;4.22;2.30;;;;;;;;;;5091926;28;20063;-73
2023/02/19 01:28:39;;;;;;;4.53;2.33;;;;;;;;;;5093760;28;20040;-75
2023/02/19 01:31:08;;;;;;;4.43;2.25;;;;;;;;;;5092384;28;20097;-74
2023/02/19 01:33:35;;;;;;;3.70;1.98;;;;;;;;;;5094294;28;20451;-75
2023/02/19 01:36:03;;;;;;;4.15;1.92;;;;;;;;;;5092320;28;20144;-74
2023/02/19 01:38:30;;;;;;;5.68;2.30;;;;;;;;;;5100768;28;20103;-74
2023/02/19 01:40:59;;;;;;;4.18;2.30;;;;;;;;;;5093588;28;20051;-75
2023/02/19 01:43:26;;;;;;;5.68;2.20;;;;;;;;;;5103515;28;20130;-74
2023/02/19 01:45:53;;;;;;;4.90;1.98;;;;;;;;;;5103074;28;20082;-74
2023/02/19 01:48:23;;;;;;;5.32;2.30;;;;;;;;;;5104224;28;20078;-74
2023/02/19 01:50:54;;;;;;;4.37;1.87;;;;;;;;;;5103699;28;20052;-74
2023/02/19 01:53:24;;;;;;;4.15;2.22;;;;;;;;;;5103000;28;20296;-74
2023/02/19 01:55:54;;;;;;;5.05;2.60;;;;;;;;;;5101585;28;20044;-74
2023/02/19 01:58:23;;;;;;;3.88;2.03;;;;;;;;;;5101664;28;20056;-75
2023/02/19 02:00:50;;;;;;;4.72;2.30;;;;;;;;;;5101525;28;20072;-75
2023/02/19 02:03:17;;;;;;;5.63;2.45;;;;;;;;;;5102238;28;20093;-75
2023/02/19 02:05:49;;;;;;;5.38;2.60;;;;;;;;;;5103079;28;20044;-74
2023/02/19 02:11:03;;;;;;;5.07;2.97;;;;;;;;;;5102234;28;20094;-74
2023/02/19 02:13:33;;;;;;;5.20;2.50;;;;;;;;;;5099805;28;20407;-74
2023/02/19 02:16:09;;;;;;;6.13;2.83;;;;;;;;;;5099188;28;20048;-75
2023/02/19 02:18:47;;;;;;;4.45;2.40;;;;;;;;;;5110863;28;20079;-74
2023/02/19 02:21:51;;;;;;;4.88;2.33;;;;;;;;;;5117025;28;20521;-75
2023/02/19 02:24:46;;;;;;;4.95;2.58;;;;;;;;;;5101038;28;20130;-75
2023/02/19 02:27:28;;;;;;;4.63;2.42;;;;;;;;;;5108345;28;20100;-74
2023/02/19 02:30:17;;;;;;;5.50;2.92;;;;;;;;;;5100101;28;20084;-75
2023/02/19 02:32:53;;;;;;;4.65;2.55;;;;;;;;;;5095166;28;20044;-74
2023/02/19 02:35:22;;;;;;;4.30;2.35;;;;;;;;;;5095694;28;20051;-75
2023/02/19 02:37:51;;;;;;;4.95;2.92;;;;;;;;;;5095245;28;20052;-75
2023/02/19 02:40:18;;;;;;;5.40;2.80;;;;;;;;;;5098950;28;20118;-76
2023/02/19 02:42:45;;;;;;;4.85;2.30;;;;;;;;;;5115323;28;20379;-75
2023/02/19 02:45:36;;;;;;;4.30;2.50;;;;;;;;;;5115196;28;20233;-75
2023/02/19 02:48:09;;;;;;;5.60;3.00;;;;;;;;;;5114549;28;20055;-75
2023/02/19 02:50:42;;;;;;;6.72;3.20;;;;;;;;;;5115046;28;20126;-75
2023/02/19 02:55:59;;;;;;;6.70;3.20;;;;;;;;;;5115107;28;20054;-75
2023/02/19 02:58:27;;;;;;;6.28;3.25;;;;;;;;;;5105288;28;20524;-75
2023/02/19 03:03:47;;;;;;;6.07;3.08;;;;;;;;;;5115641;28;20066;-75
2023/02/19 03:06:17;;;;;;;5.20;3.00;;;;;;;;;;5104148;28;20582;-75
2023/02/19 03:08:49;;;;;;;5.05;3.00;;;;;;;;;;5094886;28;20044;-75
2023/02/19 03:19:44;;;;;;;9.02;3.22;;;;;;;;;;5114453;28;20055;-75
2023/02/19 03:22:15;;;;;;;6.07;3.20;;;;;;;;;;5114690;28;20578;-75
2023/02/19 03:27:30;;;;;;;5.32;2.70;;;;;;;;;;5114354;28;19961;-75
2023/02/19 03:29:59;;;;;;;4.88;3.08;;;;;;;;;;5100436;28;20104;-75
2023/02/19 03:32:31;;;;;;;5.30;3.00;;;;;;;;;;5093697;28;20126;-74
2023/02/19 03:35:01;;;;;;;6.82;3.17;;;;;;;;;;5093916;28;20087;-74
2023/02/19 03:37:32;;;;;;;7.55;3.10;;;;;;;;;;5093957;28;20113;-75
2023/02/19 03:39:59;;;;;;;6.38;3.20;;;;;;;;;;5094744;28;20066;-74
2023/02/19 03:42:35;;;;;;;6.10;3.15;;;;;;;;;;5093744;28;20076;-74
2023/02/19 03:45:23;;;;;;;6.68;3.05;;;;;;;;;;5094276;28;20131;-74
2023/02/19 03:47:56;;;;;;;5.65;3.25;;;;;;;;;;5094356;28;20047;-75
2023/02/19 03:50:27;;;;;;;5.85;3.28;;;;;;;;;;5093622;28;20044;-76
2023/02/19 03:53:03;;;;;;;6.22;2.92;;;;;;;;;;5093195;28;20127;-76
2023/02/19 03:55:36;;;;;;;7.78;3.42;;;;;;;;;;5093714;28;20052;-75
2023/02/19 03:58:08;;;;;;;5.85;2.88;;;;;;;;;;5103662;28;20138;-75
2023/02/19 04:00:40;;;;;;;5.50;2.80;;;;;;;;;;5112961;28;20071;-74
2023/02/19 04:03:17;;;;;;;6.57;3.33;;;;;;;;;;5113611;28;20134;-76
2023/02/19 04:05:48;;;;;;;5.28;2.95;;;;;;;;;;5106553;28;20090;-75
2023/02/19 04:08:16;;;;;;;;;;;;;;;;;;5094789;28;20084;-75
2023/02/19 04:10:45;;;;;;;5.93;3.30;;;;;;;;;;5113606;28;19924;-74
2023/02/19 04:13:18;;;;;;;5.07;2.85;;;;;;;;;;5113529;28;20046;-75
2023/02/19 04:15:47;;;;;;;6.30;3.58;;;;;;;;;;5113998;28;20131;-75
2023/02/19 04:18:18;;;;;;;8.43;3.38;;;;;;;;;;5113306;28;20051;-74
2023/02/19 04:20:47;;;;;;;6.25;3.33;;;;;;;;;;5072960;28;20074;-74
2023/02/19 04:23:16;;;;;;;7.05;3.05;;;;;;;;;;5072330;28;20434;-76
2023/02/19 04:25:46;;;;;;;7.00;2.95;;;;;;;;;;5072702;28;20152;-75
2023/02/19 04:28:15;;;;;;;5.88;3.17;;;;;;;;;;5075860;28;20699;-75
2023/02/19 04:30:42;;;;;;;5.30;3.20;;;;;;;;;;5113323;28;20130;-75
2023/02/19 04:33:09;;;;;;;5.28;2.80;;;;;;;;;;5113099;28;20040;-75
2023/02/19 04:35:37;;;;;;;4.55;2.80;;;;;;;;;;5113381;28;20475;-75
2023/02/19 04:38:03;;;;;;;6.25;2.80;;;;;;;;;;5112655;28;20139;-75
2023/02/19 04:40:30;;;;;;;7.30;3.67;;;;;;;;;;5072302;28;20159;-75
2023/02/19 04:42:57;;;;;;;5.57;2.80;;;;;;;;;;5072505;28;20054;-75
2023/02/19 04:45:23;;;;;;;5.80;3.00;;;;;;;;;;5106553;28;20437;-74
2023/02/19 04:47:50;;;;;;;6.07;3.00;;;;;;;;;;5112792;28;20079;-74
2023/02/19 04:50:17;;;;;;;5.00;2.83;;;;;;;;;;5112617;28;20043;-75
2023/02/19 04:52:45;;;;;;;5.30;2.78;;;;;;;;;;5112280;28;20581;-75
2023/02/19 04:55:11;;;;;;;4.65;2.65;;;;;;;;;;5082499;28;20071;-75
2023/02/19 04:57:38;;;;;;;6.90;3.10;;;;;;;;;;5092388;28;20079;-74
2023/02/19 05:00:06;;;;;;;4.95;2.50;;;;;;;;;;5108162;28;20122;-74
2023/02/19 05:02:33;;;;;;;5.35;3.30;;;;;;;;;;5112607;28;20047;-74
2023/02/19 05:05:00;;;;;;;5.97;3.08;;;;;;;;;;5084962;28;20063;-74
2023/02/19 05:07:27;;;;;;;5.60;3.08;;;;;;;;;;5081013;28;20083;-74
2023/02/19 05:09:55;;;;;;;5.32;2.83;;;;;;;;;;5092269;28;20062;-74
2023/02/19 05:12:22;;;;;;;5.47;2.83;;;;;;;;;;5092101;28;20040;-74
2023/02/19 05:14:49;;;;;;;5.38;2.83;;;;;;;;;;5092312;28;20587;-74
2023/02/19 05:17:16;;;;;;;4.22;2.42;;;;;;;;;;5091189;28;20490;-74
2023/02/19 05:19:43;;;;;;;6.10;3.08;;;;;;;;;;5092590;28;20473;-74
2023/02/19 05:22:09;;;;;;;5.05;2.85;;;;;;;;;;5092066;28;20064;-74
2023/02/19 05:24:36;;;;;;;5.45;2.90;;;;;;;;;;5092689;28;20093;-74
2023/02/19 05:27:07;;;;;;;5.38;2.72;;;;;;;;;;5093082;28;20044;-74
2023/02/19 05:29:34;;;;;;;5.72;2.70;;;;;;;;;;5093166;28;20586;-74
2023/02/19 05:32:00;;;;;;;5.63;2.80;;;;;;;;;;5079157;28;20072;-74
2023/02/19 05:34:27;;;;;;;5.72;3.03;;;;;;;;;;5093619;28;20104;-75
2023/02/19 05:36:54;;;;;;;4.88;2.50;;;;;;;;;;5095073;28;20091;-73
2023/02/19 05:39:20;;;;;;;5.28;3.00;;;;;;;;;;5100380;28;20079;-74
2023/02/19 05:41:47;;;;;;;5.38;2.80;;;;;;;;;;5114962;28;20075;-74
2023/02/19 05:44:15;;;;;;;6.80;3.13;;;;;;;;;;5115207;28;20135;-74
2023/02/19 05:46:42;;;;;;;6.07;2.63;;;;;;;;;;5114599;28;20047;-75
2023/02/19 05:49:08;;;;;;;4.97;2.30;;;;;;;;;;5113540;28;20044;-74
2023/02/19 05:51:35;;;;;;;5.00;2.80;;;;;;;;;;5106820;28;20039;-75
2023/02/19 05:54:02;;;;;;;5.35;3.00;;;;;;;;;;5114368;28;20040;-74
2023/02/19 05:56:32;;;;;;;5.15;2.80;;;;;;;;;;5114379;28;20048;-74
2023/02/19 05:59:00;;;;;;;4.68;2.47;;;;;;;;;;5113483;28;20482;-74
2023/02/19 06:01:29;;;;;;;5.25;2.70;;;;;;;;;;5105445;28;20046;-75
2023/02/19 06:03:57;;;;;;;5.70;3.05;;;;;;;;;;5114457;28;20070;-73
2023/02/19 06:06:24;;;;;;;5.68;2.53;;;;;;;;;;5101854;28;20124;-73
2023/02/19 06:08:51;;;;;;;4.88;2.67;;;;;;;;;;5092241;28;20046;-74
2023/02/19 06:11:18;;;;;;;5.57;2.63;;;;;;;;;;5103190;28;20043;-73
2023/02/19 06:13:44;;;;;;;6.03;3.10;;;;;;;;;;5111796;28;20075;-74
2023/02/19 06:19:34;;;;;;;4.88;2.53;;;;;;;;;;5069100;28;20040;-75
2023/02/19 06:22:00;;;;;;;7.03;3.10;;;;;;;;;;5097019;28;20044;-74
2023/02/19 06:24:27;;;;;;;4.63;2.63;;;;;;;;;;5083725;28;20040;-74
2023/02/19 06:26:54;;;;;;;5.47;2.80;;;;;;;;;;5083015;28;20127;-74
2023/02/19 06:29:20;;;;;;;5.40;2.78;;;;;;;;;;5104389;28;20068;-74
2023/02/19 06:31:47;;;;;;;5.38;2.92;;;;;;;;;;5107545;28;20044;-75
2023/02/19 06:34:14;;;;;;;6.20;2.80;;;;;;;;;;5115706;28;20126;-75
2023/02/19 06:36:45;;;;;;;5.03;2.90;;;;;;;;;;5091316;28;20040;-75
2023/02/19 06:39:11;;;;;;;6.90;3.13;;;;;;;;;;5075047;28;20131;-74
2023/02/19 06:41:38;;;;;;;4.70;2.60;;;;;;;;;;5081506;28;20480;-75
2023/02/19 06:44:05;;;;;;;6.82;2.78;;;;;;;;;;5099362;28;20130;-74
2023/02/19 06:46:31;;;;;;;5.70;2.50;;;;;;;;;;5094907;28;20044;-74
2023/02/19 06:48:58;;;;;;;5.78;3.17;;;;;;;;;;5094796;28;20054;-75
2023/02/19 06:51:26;;;;;;;5.40;2.55;;;;;;;;;;5094679;28;20079;-75
2023/02/19 06:53:54;;;;;;;4.78;2.83;;;;;;;;;;5113333;28;20050;-75
2023/02/19 06:56:25;;;;;;;5.35;2.90;;;;;;;;;;5115812;28;20183;-75
2023/02/19 06:58:53;;;;;;;5.20;2.75;;;;;;;;;;5109538;28;20086;-75
2023/02/19 07:01:19;;;;;;;6.25;3.80;;;;;;;;;;5094997;28;20130;-75
2023/02/19 07:03:46;;;;;;;5.05;2.80;;;;;;;;;;5079346;28;20041;-76
2023/02/19 07:06:13;;;;;;;6.40;3.15;;;;;;;;;;5101972;28;20713;-74
2023/02/19 07:08:39;;;;;;;5.90;3.15;;;;;;;;;;5115613;28;20039;-75
2023/02/19 07:11:07;;;;;;;8.45;2.80;;;;;;;;;;5115113;28;20127;-74
2023/02/19 07:13:34;;;;;;;4.57;2.85;;;;;;;;;;5105830;28;20549;-74
2023/02/19 07:16:03;;;;;;;5.00;2.95;;;;;;;;;;5114793;28;20044;-74
2023/02/19 07:18:30;;;;;;;4.88;2.97;;;;;;;;;;5114816;28;20082;-73
2023/02/19 07:21:02;;;;;;;5.93;2.90;;;;;;;;;;5114545;28;20051;-74
2023/02/19 07:23:29;;;;;;;5.30;2.75;;;;;;;;;;5109659;28;20044;-75
2023/02/19 07:25:56;;;;;;;5.20;2.92;;;;;;;;;;5111176;28;20044;-74
2023/02/19 07:28:24;;;;;;;5.15;3.10;;;;;;;;;;5112372;28;20040;-74
2023/02/19 07:30:50;;;;;;;6.97;3.95;;;;;;;;;;5097399;28;20040;-75
2023/02/19 07:33:17;;;;;;;5.45;3.00;;;;;;;;;;5101948;28;20132;-75
2023/02/19 07:35:46;;;;;;;5.45;3.00;;;;;;;;;;5093667;28;20647;-75
2023/02/19 07:38:15;;;;;;;5.15;3.13;;;;;;;;;;5093879;28;20048;-75
2023/02/19 07:40:42;;;;;;;5.25;2.78;;;;;;;;;;5092918;28;20080;-75
2023/02/19 07:43:09;;;;;;;6.18;3.33;;;;;;;;;;5101984;28;20083;-74
2023/02/19 07:45:37;;;;;;;4.68;2.97;;;;;;;;;;5093905;28;20040;-76
2023/02/19 07:48:04;;;;;;;5.68;2.85;;;;;;;;;;5093668;28;20123;-75
2023/02/19 07:50:30;;;;;;;5.95;3.22;;;;;;;;;;5093903;28;20093;-75
2023/02/19 07:52:57;;;;;;;6.38;3.17;;;;;;;;;;5094295;28;20125;-75
2023/02/19 07:55:24;;;;;;;6.57;3.20;;;;;;;;;;5093821;28;20130;-75
2023/02/19 07:57:51;;;;;;;6.45;3.00;;;;;;;;;;5093547;28;20156;-75
2023/02/19 08:00:21;;;;;;;5.65;3.20;;;;;;;;;;5125637;22;20044;-81
2023/02/19 08:05:38;;;;;;;5.40;3.00;;;;;;;;;;5092035;28;19920;-82
2023/02/19 08:08:06;;;;;;;6.18;3.53;;;;;;;;;;5098383;28;20036;-82
2023/02/19 08:13:22;;;;;;;6.03;3.08;;;;;;;;;;5103818;28;20046;-81
2023/02/19 08:15:49;;;;;;;5.32;2.90;;;;;;;;;;5113389;28;20044;-81
2023/02/19 08:18:19;;;;;;;5.78;3.00;;;;;;;;;;5107880;28;20039;-82
2023/02/19 08:20:46;;;;;;;5.57;3.05;;;;;;;;;;5116753;28;20176;-82
2023/02/19 08:23:13;;;;;;;5.43;2.63;;;;;;;;;;5118336;28;20068;-82
2023/02/19 08:25:40;;;;;;;5.45;2.92;;;;;;;;;;5118057;28;20047;-81
2023/02/19 08:28:09;;;;;;;7.50;3.65;;;;;;;;;;5121641;28;20035;-82
2023/02/19 08:30:37;;;;;;;5.50;2.85;;;;;;;;;;5109406;28;20127;-81
2023/02/19 08:33:06;;;;;;;5.00;3.67;;;;;;;;;;5109419;28;20103;-82
2023/02/19 08:35:36;;;;;;;5.07;2.80;;;;;;;;;;5104762;28;20036;-81
2023/02/19 08:38:04;;;;;;;5.68;2.78;;;;;;;;;;5107418;28;20051;-81
2023/02/19 08:40:31;;;;;;;4.45;2.70;;;;;;;;;;5105514;28;20071;-82
2023/02/19 08:43:02;;;;;;;6.57;2.72;;;;;;;;;;5101579;28;20441;-81
2023/02/19 08:45:29;;;;;;;4.32;2.50;;;;;;;;;;5105731;28;20558;-82
2023/02/19 08:47:55;;;;;;;5.43;2.08;;;;;;;;;;5101248;28;20044;-81
2023/02/19 08:50:22;;;;;;;4.43;2.58;;;;;;;;;;5103639;28;20086;-81
2023/02/19 08:52:50;;;;;;;3.38;1.98;;;;;;;;;;5106852;28;20192;-81
2023/02/19 08:55:17;;;;;;;4.03;1.98;;;;;;;;;;5106011;28;20044;-81
2023/02/19 08:57:44;;;;;;;3.78;1.90;;;;;;;;;;5106910;28;20051;-81
2023/02/19 09:00:12;;;;;;;4.03;1.90;;;;;;;;;;5104922;28;20043;-81
2023/02/19 09:02:39;;;;;;;3.38;1.80;;;;;;;;;;5112112;28;20044;-81
2023/02/19 09:05:06;;;;;;;3.10;1.70;;;;;;;;;;5110668;28;20563;-82
2023/02/19 09:07:33;;;;;;;2.80;1.70;;;;;;;;;;5127815;27;20035;-82
2023/02/19 09:10:04;;;;;;;4.07;1.88;;;;;;;;;;5136936;28;20044;-81
2023/02/19 09:12:32;;;;;;;4.20;1.70;;;;;;;;;;5117634;28;20075;-81
2023/02/19 09:14:59;;;;;;;3.35;1.40;;;;;;;;;;5123746;28;20048;-82
2023/02/19 09:17:26;;;;;;;3.58;1.80;;;;;;;;;;5112228;28;20070;-82
2023/02/19 09:19:52;;;;;;;3.30;1.60;;;;;;;;;;5101824;28;20506;-82
2023/02/19 09:22:19;;;;;;;3.78;1.85;;;;;;;;;;5106525;28;20047;-82
2023/02/19 09:24:46;;;;;;;2.40;0.75;;;;;;;;;;5105404;28;20048;-81
2023/02/19 09:27:18;;;;;;;1.88;0.80;;;;;;;;;;5101857;28;20047;-82
2023/02/19 09:29:45;;;;;;;1.60;0.60;;;;;;;;;;5105518;28;20101;-81
2023/02/19 09:32:12;;;;;;;4.15;0.88;;;;;;;;;;5098043;28;20070;-81
2023/02/19 09:34:38;;;;;;;2.00;0.77;;;;;;;;;;5100673;28;20087;-81
2023/02/19 09:37:05;;;;;;;0.80;0.50;;;;;;;;;;5107073;28;20047;-82
2023/02/19 09:39:33;;;;;;;1.67;0.60;;;;;;;;;;5094741;28;20422;-83
2023/02/19 09:42:04;;;;;;;1.35;0.57;;;;;;;;;;5096923;28;20052;-82
2023/02/19 09:44:35;;;;;;;0.82;0.45;;;;;;;;;;5096533;28;20064;-82
2023/02/19 09:47:05;;;;;;;1.27;0.60;;;;;;;;;;5096546;28;20048;-83
2023/02/19 09:49:35;;;;;;;0.95;0.40;;;;;;;;;;5096905;28;20064;-83
2023/02/19 09:52:08;;;;;;;1.05;0.45;;;;;;;;;;5095442;28;20087;-83
2023/02/19 09:54:37;;;;;;;0.90;0.40;;;;;;;;;;5097068;28;20048;-83
2023/02/19 09:57:04;;;;;;;1.70;0.70;;;;;;;;;;5096307;28;20079;-83
2023/02/19 09:59:39;;;;;;;1.13;0.50;;;;;;;;;;5099070;28;20048;-83
2023/02/19 10:02:16;;;;;;;1.15;0.70;;;;;;;;;;5100094;28;20139;-82
2023/02/19 10:04:44;;;;;;;0.93;0.60;;;;;;;;;;5120901;28;20147;-83
2023/02/19 10:07:12;;;;;;;1.88;0.70;;;;;;;;;;5122294;28;20486;-82
2023/02/19 10:09:39;;;;;;;2.17;0.80;;;;;;;;;;5121012;28;20101;-83
2023/02/19 10:12:14;;;;;;;1.75;0.80;;;;;;;;;;5126267;28;20044;-83
2023/02/19 10:14:46;;;;;;;2.63;0.80;;;;;;;;;;5112869;28;20074;-83
2023/02/19 10:17:22;;;;;;;1.48;0.63;;;;;;;;;;5118505;28;20442;-82
2023/02/19 10:19:49;;;;;;;2.65;0.90;;;;;;;;;;5120390;28;20086;-82
2023/02/19 10:22:16;;;;;;;1.88;0.80;;;;;;;;;;5120129;28;20043;-83
2023/02/19 10:24:44;;;;;;;1.73;0.80;;;;;;;;;;5116503;28;20108;-83
2023/02/19 10:27:13;;;;;;;2.28;1.13;;;;;;;;;;5099590;28;20478;-83
2023/02/19 10:29:39;;;;;;;1.42;0.90;;;;;;;;;;5097827;28;20044;-83
2023/02/19 10:32:19;;;;;;;1.20;0.70;;;;;;;;;;5098130;28;20064;-83
2023/02/19 10:34:46;;;;;;;3.72;1.23;;;;;;;;;;5099322;28;20048;-84
2023/02/19 10:37:15;;;;;;;1.67;0.80;;;;;;;;;;5114843;28;20091;-82
2023/02/19 10:39:45;;;;;;;1.80;0.77;;;;;;;;;;5109434;28;20107;-82
2023/02/19 10:42:17;;;;;;;2.65;0.98;;;;;;;;;;5098268;28;20562;-82
2023/02/19 10:44:47;;;;;;;2.42;1.13;;;;;;;;;;5106955;28;20100;-81
2023/02/19 10:47:22;;;;;;;2.10;0.77;;;;;;;;;;5120163;28;20486;-82
2023/02/19 10:49:51;;;;;;;1.73;0.80;;;;;;;;;;5101660;28;20100;-81
2023/02/19 10:52:21;;;;;;;2.20;0.70;;;;;;;;;;5097529;28;20071;-81
2023/02/19 10:54:51;;;;;;;2.03;0.68;;;;;;;;;;5096867;28;20044;-80
2023/02/19 10:57:36;;;;;;;1.50;0.65;;;;;;;;;;5097116;28;20094;-81
2023/02/19 11:00:21;;;;;;;1.80;0.70;;;;;;;;;;5096971;28;20058;-80
2023/02/19 11:02:49;;;;;;;2.40;0.80;;;;;;;;;;5097440;28;20048;-80
2023/02/19 11:05:19;;;;;;;1.67;0.70;;;;;;;;;;5096430;28;20449;-80
2023/02/19 11:07:49;;;;;;;1.80;0.80;;;;;;;;;;5098378;28;20040;-81
2023/02/19 11:10:27;;;;;;;1.73;0.70;;;;;;;;;;5097723;28;20050;-81
2023/02/19 11:12:56;;;;;;;3.38;0.82;;;;;;;;;;5105287;28;20510;-81
2023/02/19 11:15:27;;;;;;;1.70;0.70;;;;;;;;;;5096317;28;20052;-81
2023/02/19 11:17:59;;;;;;;;;;;;;;;;;;5098466;28;20052;-81
2023/02/19 11:20:28;;;;;;;1.80;0.50;;;;;;;;;;5103420;28;19924;-83
2023/02/19 11:23:01;;;;;;;1.23;0.63;;;;;;;;;;5105341;28;20058;-82
2023/02/19 11:25:28;;;;;;;0.75;0.50;;;;;;;;;;5110287;28;20079;-81
2023/02/19 11:28:07;;;;;;;0.60;0.30;;;;;;;;;;5108123;28;20457;-84
2023/02/19 11:30:40;;;;;;;0.88;0.40;;;;;;;;;;5090496;28;20052;-80
2023/02/19 11:33:27;;;;;;;1.55;0.43;;;;;;;;;;5089362;28;20052;-79
2023/02/19 11:36:00;;;;;;;1.25;0.45;;;;;;;;;;5110306;28;20052;-82
2023/02/19 11:38:27;;;;;;;1.13;0.60;;;;;;;;;;5107944;28;20115;-81
2023/02/19 11:41:02;;;;;;;1.90;0.70;;;;;;;;;;5106273;28;20048;-80
2023/02/19 11:43:47;;;;;;;1.30;0.80;;;;;;;;;;5106261;28;20048;-80
2023/02/19 11:46:20;;;;;;;1.10;0.57;;;;;;;;;;5118439;28;20046;-83
2023/02/19 11:49:03;;;;;;;0.82;0.43;;;;;;;;;;5132169;28;20044;-83
2023/02/19 11:51:49;;;;;;;0.80;0.40;;;;;;;;;;5133513;28;20048;-82
2023/02/19 11:54:34;;;;;;;1.98;0.60;;;;;;;;;;5113099;28;20075;-83
2023/02/19 11:57:17;;;;;;;2.30;0.70;;;;;;;;;;5111455;28;20040;-80
2023/02/19 11:59:48;;;;;;;1.40;0.60;;;;;;;;;;5105072;28;20059;-80
2023/02/19 12:02:32;;;;;;;2.08;0.70;;;;;;;;;;5100048;28;20048;-80
2023/02/19 12:05:32;;;;;;;2.30;0.50;;;;;;;;;;5100427;28;20075;-79
2023/02/19 12:08:34;;;;;;;1.88;0.60;;;;;;;;;;5080299;28;20044;-80
2023/02/19 12:11:16;;;;;;;1.95;0.70;;;;;;;;;;5096991;28;20044;-80
2023/02/19 12:14:07;;;;;;;0.90;0.60;;;;;;;;;;5105262;28;20047;-80
2023/02/19 12:16:41;;;;;;;1.02;0.57;;;;;;;;;;5076592;28;20609;-79
2023/02/19 12:19:25;;;;;;;1.63;0.80;;;;;;;;;;5097542;28;20132;-80
2023/02/19 12:22:06;;;;;;;2.05;0.70;;;;;;;;;;5097384;28;20094;-79
2023/02/19 12:24:57;;;;;;;2.05;0.90;;;;;;;;;;5105762;28;20047;-79
2023/02/19 12:27:41;;;;;;;1.60;0.73;;;;;;;;;;5098827;28;20487;-81
2023/02/19 12:30:59;;;;;;;2.80;0.85;;;;;;;;;;5099530;28;20101;-82
2023/02/19 12:33:48;;;;;;;2.15;0.90;;;;;;;;;;5103234;28;20046;-80
2023/02/19 12:36:22;;;;;;;1.15;0.70;;;;;;;;;;5101395;28;20130;-82
2023/02/19 12:38:58;;;;;;;1.30;0.70;;;;;;;;;;5125288;28;20059;-80
2023/02/19 12:41:36;;;;;;;1.83;0.82;;;;;;;;;;5131057;28;20027;-79
2023/02/19 12:44:11;;;;;;;2.13;0.90;;;;;;;;;;5120043;28;20051;-79
2023/02/19 12:46:41;;;;;;;1.30;0.60;;;;;;;;;;5099299;28;20391;-83
2023/02/19 12:49:14;;;;;;;1.10;0.60;;;;;;;;;;5103485;28;20052;-84
2023/02/19 12:51:44;;;;;;;2.35;0.80;;;;;;;;;;5116265;28;20139;-85
2023/02/19 12:54:18;;;;;;;1.63;0.60;;;;;;;;;;5097446;28;20052;-85
2023/02/19 12:56:50;;;;;;;2.50;0.70;;;;;;;;;;5098217;28;20109;-82
2023/02/19 12:59:24;;;;;;;2.45;0.75;;;;;;;;;;5115090;28;20459;-80
2023/02/19 13:01:58;;;;;;;2.20;0.80;;;;;;;;;;5121588;28;20028;-80
2023/02/19 13:04:32;;;;;;;4.55;1.88;;;;;;;;;;5118311;28;20024;-81
2023/02/19 13:07:04;;;;;;;3.58;0.80;;;;;;;;;;5126195;28;20051;-80
2023/02/19 13:09:41;;;;;;;1.85;0.70;;;;;;;;;;5117241;28;20036;-82
2023/02/19 13:12:14;;;;;;;9.73;5.57;;;;;;;;;;5098515;28;20091;-82
2023/02/19 13:14:45;;;;;;;5.35;2.58;;;;;;;;;;5098050;28;20113;-81
2023/02/19 13:17:21;;;;;;;6.75;2.92;;;;;;;;;;5099219;28;20104;-85
2023/02/19 13:19:51;;;;;;;9.18;4.35;;;;;;;;;;5099263;28;20044;-83
2023/02/19 13:25:10;;;;;;;8.43;3.88;;;;;;;;;;5099386;28;19969;-83
2023/02/19 13:28:04;;;;;;;8.77;4.63;;;;;;;;;;5097313;28;20055;-83
2023/02/19 13:30:48;;;;;;;8.55;3.42;;;;;;;;;;5106819;28;20064;-84
2023/02/19 13:33:28;;;;;;;8.55;3.05;;;;;;;;;;5098790;28;20047;-83
2023/02/19 13:36:10;;;;;;;40.47;16.67;;;;;;;;;;5097180;28;20048;-83
2023/02/19 13:38:39;;;;;;;13.88;5.90;;;;;;;;;;5107558;28;20044;-84
2023/02/19 13:41:18;;;;;;;3.50;1.10;;;;;;;;;;5124517;28;20052;-84
2023/02/19 13:43:46;;;;;;;2.55;1.10;;;;;;;;;;5088512;28;20114;-83
2023/02/19 13:46:16;;;;;;;4.88;1.10;;;;;;;;;;5089200;28;20132;-85
2023/02/19 13:48:44;;;;;;;2.92;0.90;;;;;;;;;;5102096;28;20059;-84
2023/02/19 13:51:50;;;;;;;3.70;0.90;;;;;;;;;;5110237;28;20048;-84
2023/02/19 13:54:23;;;;;;;3.75;1.10;;;;;;;;;;5116554;28;20048;-84
2023/02/19 13:57:27;;;;;;;1.65;0.80;;;;;;;;;;5111073;28;20048;-84
2023/02/19 13:59:55;;;;;;;1.25;0.65;;;;;;;;;;5128652;28;20059;-83
2023/02/19 14:02:29;;;;;;;2.17;0.80;;;;;;;;;;5121613;28;20048;-84
2023/02/19 14:04:59;;;;;;;6.95;1.27;;;;;;;;;;5115994;28;20056;-83
2023/02/19 14:08:00;;;;;;;1.45;0.50;;;;;;;;;;5121096;27;20069;-84
2023/02/19 14:11:01;;;;;;;2.47;0.70;;;;;;;;;;5140028;27;20057;-81
2023/02/19 14:14:05;;;;;;;1.80;0.98;;;;;;;;;;5132837;28;20047;-82
2023/02/19 14:16:48;;;;;;;1.88;0.88;;;;;;;;;;5124628;28;20059;-83
2023/02/19 14:19:15;;;;;;;2.17;0.85;;;;;;;;;;5120957;28;20700;-82
2023/02/19 14:21:42;;;;;;;2.72;0.90;;;;;;;;;;5121085;28;20067;-84
2023/02/19 14:24:13;;;;;;;2.50;1.00;;;;;;;;;;5080413;28;20109;-83
2023/02/19 14:26:40;;;;;;;2.30;0.80;;;;;;;;;;5080599;28;20071;-84
2023/02/19 14:29:11;;;;;;;2.42;1.00;;;;;;;;;;5117218;28;20391;-83
2023/02/19 14:31:39;;;;;;;2.42;0.80;;;;;;;;;;5100673;28;20066;-86
2023/02/19 14:34:14;;;;;;;1.98;0.75;;;;;;;;;;5122499;28;20072;-83
2023/02/19 14:36:47;;;;;;;2.33;0.90;;;;;;;;;;5117340;28;20044;-84
2023/02/19 14:39:17;;;;;;;2.67;1.00;;;;;;;;;;5111011;28;20067;-83
2023/02/19 14:41:47;;;;;;;3.05;0.93;;;;;;;;;;5130454;28;20096;-84
2023/02/19 14:44:19;;;;;;;2.67;1.00;;;;;;;;;;5109772;28;20040;-83
2023/02/19 14:46:54;;;;;;;2.83;1.00;;;;;;;;;;5102497;28;20048;-83
2023/02/19 14:49:28;;;;;;;2.65;1.10;;;;;;;;;;5105097;28;20044;-83
2023/02/19 14:51:59;;;;;;;2.42;1.00;;;;;;;;;;5104895;28;20052;-83
2023/02/19 14:54:37;;;;;;;2.28;0.95;;;;;;;;;;5111294;28;20051;-83
2023/02/19 14:57:06;;;;;;;2.95;1.00;;;;;;;;;;5123497;28;20027;-84
2023/02/19 14:59:35;;;;;;;2.80;1.02;;;;;;;;;;5112347;28;20055;-83
2023/02/19 15:02:04;;;;;;;2.63;1.20;;;;;;;;;;5105850;22;20044;-76
2023/02/19 15:04:35;;;;;;;3.83;1.60;;;;;;;;;;5093003;28;20477;-76
2023/02/19 15:07:07;;;;;;;3.28;1.13;;;;;;;;;;5094069;28;20139;-76
2023/02/19 15:09:38;;;;;;;2.13;1.30;;;;;;;;;;5094761;28;20575;-76
2023/02/19 15:12:08;;;;;;;2.70;1.00;;;;;;;;;;5094570;28;20143;-75
2023/02/19 15:14:36;;;;;;;3.22;1.23;;;;;;;;;;5094757;28;20052;-75
2023/02/19 15:17:05;;;;;;;3.78;1.10;;;;;;;;;;5094089;28;20077;-76
2023/02/19 15:19:34;;;;;;;2.30;1.10;;;;;;;;;;5094408;28;20044;-75
2023/02/19 15:22:02;;;;;;;3.65;1.33;;;;;;;;;;5093752;28;20055;-75
2023/02/19 15:24:29;;;;;;;3.47;1.30;;;;;;;;;;5094997;28;20241;-76
2023/02/19 15:26:56;;;;;;;2.28;1.15;;;;;;;;;;5091355;28;20048;-77
2023/02/19 15:29:25;;;;;;;2.15;1.10;;;;;;;;;;5084057;28;20052;-76
2023/02/19 15:31:55;;;;;;;2.97;1.02;;;;;;;;;;5093654;28;20048;-76
2023/02/19 15:34:24;;;;;;;2.58;0.90;;;;;;;;;;5094121;28;20044;-75
2023/02/19 15:36:55;;;;;;;4.97;1.70;;;;;;;;;;5093752;28;20616;-75